Time;durP1;ratioP1;P1;durP2;ratioP2;P2;SDS_P1;SDS_P2;PMS_P1;PMS_P2;Temp;Humidity;BMP_temperature;BMP_pressure;BME280_temperature;BME280_humidity;BME280_pressure;Samples;Min_cycle;Max_cycle;Signal;HPM_P1;HPM_P2
2022/10/17 00:02:40;;;;;;;;;;;15.50;99.90;;;;;;8387000;28;19934;-81
2022/10/17 00:06:42;;;;;;;;;;;15.50;99.90;;;;;;8370037;28;19924;-80
2022/10/17 00:10:44;;;;;;;;;;;15.50;99.90;;;;;;8377631;28;19939;-80
2022/10/17 00:14:45;;;;;;;;;;;15.40;99.90;;;;;;8395791;28;19934;-81
2022/10/17 00:18:47;;;;;;;;;;;15.40;99.90;;;;;;8379055;28;20335;-81
2022/10/17 00:22:49;;;;;;;;;;;15.40;99.90;;;;;;8387330;28;20380;-80
2022/10/17 00:26:51;;;;;;;;;;;15.30;99.90;;;;;;8383419;28;20388;-80
2022/10/17 00:30:59;;;;;;;;;;;15.30;99.90;;;;;;8388106;28;19925;-80
2022/10/17 00:39:58;;;;;;;;;;;15.30;99.90;;;;;;8378272;28;20019;-80
2022/10/17 00:44:00;;;;;;;;;;;15.20;99.90;;;;;;8387416;28;19947;-81
2022/10/17 00:48:04;;;;;;;;;;;15.20;99.90;;;;;;8396763;28;20296;-81
2022/10/17 00:52:08;;;;;;;;;;;15.20;99.90;;;;;;8389083;28;19928;-80
2022/10/17 00:56:10;;;;;;;;;;;15.20;99.90;;;;;;8387344;28;20390;-80
2022/10/17 01:00:12;;;;;;;;;;;15.10;99.90;;;;;;8377711;28;19932;-80
2022/10/17 01:04:14;;;;;;;;;;;15.20;99.90;;;;;;8375086;28;19929;-80
2022/10/17 01:08:16;;;;;;;;;;;15.20;99.90;;;;;;8359264;28;20507;-81
2022/10/17 01:12:23;;;;;;;;;;;15.20;99.90;;;;;;8378054;28;20497;-81
2022/10/17 01:16:43;;;;;;;;;;;15.20;99.90;;;;;;8363717;28;19940;-81
2022/10/17 01:21:04;;;;;;;;;;;15.20;99.90;;;;;;8364203;28;20363;-81
2022/10/17 01:25:22;;;;;;;;;;;15.20;99.90;;;;;;8363518;28;19924;-80
2022/10/17 01:29:42;;;;;;;;;;;15.20;99.90;;;;;;8373145;28;19930;-81
2022/10/17 01:33:46;;;;;;;;;;;15.20;99.90;;;;;;8382614;28;20260;-81
2022/10/17 01:37:47;;;;;;;;;;;15.10;99.90;;;;;;8367357;28;20433;-80
2022/10/17 01:41:58;;;;;;;;;;;15.20;99.90;;;;;;8381974;28;20402;-81
2022/10/17 01:46:04;;;;;;;;;;;15.20;99.90;;;;;;8379365;28;20431;-80
2022/10/17 01:50:10;;;;;;;;;;;15.20;99.90;;;;;;8402241;28;19983;-80
2022/10/17 01:54:19;;;;;;;;;;;15.10;99.90;;;;;;8378157;28;19967;-80
2022/10/17 01:58:25;;;;;;;;;;;15.10;99.90;;;;;;8389346;28;19928;-81
2022/10/17 02:02:27;;;;;;;;;;;15.20;99.90;;;;;;8379807;28;20019;-81
2022/10/17 02:11:32;;;;;;;;;;;15.20;99.90;;;;;;8394560;28;20252;-80
2022/10/17 02:15:52;;;;;;;;;;;15.20;99.90;;;;;;8385703;28;20310;-80
2022/10/17 02:20:00;;;;;;;;;;;15.20;99.90;;;;;;8387328;28;19986;-81
2022/10/17 02:24:09;;;;;;;;;;;15.20;99.90;;;;;;8384922;28;19933;-81
2022/10/17 02:28:18;;;;;;;;;;;15.30;99.90;;;;;;8395410;28;19947;-81
2022/10/17 02:32:27;;;;;;;;;;;15.30;99.90;;;;;;8387898;28;19939;-81
2022/10/17 02:36:31;;;;;;;;;;;15.40;99.90;;;;;;8397732;28;19924;-81
2022/10/17 02:40:33;;;;;;;;;;;15.40;99.90;;;;;;8386926;28;19924;-80
2022/10/17 02:44:36;;;;;;;;;;;15.40;99.90;;;;;;8389401;28;19974;-81
2022/10/17 02:48:45;;;;;;;;;;;15.50;99.90;;;;;;8399790;28;19924;-81
2022/10/17 02:52:51;;;;;;;;;;;15.60;99.90;;;;;;8385635;28;20369;-81
2022/10/17 02:57:07;;;;;;;;;;;15.60;99.90;;;;;;8382711;28;19931;-81
2022/10/17 03:01:09;;;;;;;;;;;15.60;99.90;;;;;;8368321;28;20397;-81
2022/10/17 03:05:12;;;;;;;;;;;15.60;99.90;;;;;;8408263;28;19925;-81
2022/10/17 03:09:13;;;;;;;;;;;15.70;99.90;;;;;;8394866;28;19924;-81
2022/10/17 03:13:15;;;;;;;;;;;15.60;99.90;;;;;;8369266;28;19928;-81
2022/10/17 03:17:17;;;;;;;;;;;15.70;99.90;;;;;;8387223;28;19936;-81
2022/10/17 03:21:19;;;;;;;;;;;15.60;99.90;;;;;;8390808;28;19924;-81
2022/10/17 03:25:20;;;;;;;;;;;15.70;99.90;;;;;;8383472;28;19935;-81
2022/10/17 03:29:22;;;;;;;;;;;15.70;99.90;;;;;;8378648;28;19957;-81
2022/10/17 03:33:24;;;;;;;;;;;15.70;99.90;;;;;;8399196;28;19928;-81
2022/10/17 03:37:25;;;;;;;;;;;15.70;99.90;;;;;;8369295;28;19975;-81
2022/10/17 03:41:27;;;;;;;;;;;15.70;99.90;;;;;;8385012;28;19924;-81
2022/10/17 03:45:29;;;;;;;;;;;15.80;99.90;;;;;;8386984;28;19930;-81
2022/10/17 03:49:30;;;;;;;;;;;15.80;99.90;;;;;;8378630;28;19931;-81
2022/10/17 03:53:33;;;;;;;;;;;15.80;99.90;;;;;;8368902;28;20279;-81
2022/10/17 03:57:35;;;;;;;;;;;15.80;99.90;;;;;;8386357;28;21410;-81
2022/10/17 04:01:37;;;;;;;;;;;15.90;99.90;;;;;;8379602;28;19933;-81
2022/10/17 04:05:39;;;;;;;;;;;15.90;99.90;;;;;;8364926;28;19998;-81
2022/10/17 04:09:40;;;;;;;;;;;15.90;99.90;;;;;;8389168;28;19938;-81
2022/10/17 04:13:42;;;;;;;;;;;15.90;99.90;;;;;;8365183;28;19939;-81
2022/10/17 04:17:44;;;;;;;;;;;15.90;99.90;;;;;;8378369;28;20368;-81
2022/10/17 04:21:46;;;;;;;;;;;15.90;99.90;;;;;;8375908;28;20291;-81
2022/10/17 04:25:48;;;;;;;;;;;15.90;99.90;;;;;;8373060;28;20023;-81
2022/10/17 04:34:53;;;;;;;;;;;15.90;99.90;;;;;;8383911;28;20061;-81
2022/10/17 04:38:55;;;;;;;;;;;16.00;99.90;;;;;;8385743;28;20391;-81
2022/10/17 04:42:56;;;;;;;;;;;16.00;99.90;;;;;;8375646;28;19931;-80
2022/10/17 04:46:58;;;;;;;;;;;16.00;99.90;;;;;;8384303;28;19931;-80
2022/10/17 04:51:01;;;;;;;;;;;16.00;99.90;;;;;;8387868;28;19947;-81
2022/10/17 04:55:04;;;;;;;;;;;16.00;99.90;;;;;;8363567;28;19932;-81
2022/10/17 04:59:05;;;;;;;;;;;16.10;99.90;;;;;;8363028;28;19928;-81
2022/10/17 05:03:07;;;;;;;;;;;16.10;99.90;;;;;;8387223;28;19954;-81
2022/10/17 05:07:09;;;;;;;;;;;16.10;99.90;;;;;;8387201;28;19925;-81
2022/10/17 05:11:20;;;;;;;;;;;16.10;99.90;;;;;;8394319;28;19924;-81
2022/10/17 05:15:22;;;;;;;;;;;16.10;99.90;;;;;;8374800;28;19925;-81
2022/10/17 05:19:23;;;;;;;;;;;16.10;99.90;;;;;;8381884;28;19929;-81
2022/10/17 05:23:25;;;;;;;;;;;16.10;99.90;;;;;;8385748;28;20416;-81
2022/10/17 05:27:26;;;;;;;;;;;16.10;99.90;;;;;;8385876;28;20384;-81
2022/10/17 05:31:29;;;;;;;;;;;16.10;99.90;;;;;;8382679;28;19924;-81
2022/10/17 05:35:30;;;;;;;;;;;16.10;99.90;;;;;;8395599;28;20311;-81
2022/10/17 05:39:32;;;;;;;;;;;16.20;99.90;;;;;;8383662;28;19932;-81
2022/10/17 05:43:34;;;;;;;;;;;16.20;99.90;;;;;;8386678;28;19930;-82
2022/10/17 05:47:35;;;;;;;;;;;16.20;99.90;;;;;;8391412;28;20388;-81
2022/10/17 05:51:37;;;;;;;;;;;16.20;99.90;;;;;;8395313;28;20405;-82
2022/10/17 05:55:40;;;;;;;;;;;16.20;99.90;;;;;;8394147;28;19943;-81
2022/10/17 05:59:41;;;;;;;;;;;16.20;99.90;;;;;;8397546;28;19924;-81
2022/10/17 06:03:43;;;;;;;;;;;16.20;99.90;;;;;;8375255;28;19929;-82
2022/10/17 06:07:44;;;;;;;;;;;16.20;99.90;;;;;;8395519;28;19924;-81
2022/10/17 06:11:46;;;;;;;;;;;16.20;99.90;;;;;;8397842;28;20015;-81
2022/10/17 06:15:48;;;;;;;;;;;16.20;99.90;;;;;;8384525;28;20317;-80
2022/10/17 06:19:49;;;;;;;;;;;16.20;99.90;;;;;;8386100;28;19928;-80
2022/10/17 06:23:51;;;;;;;;;;;16.20;99.90;;;;;;8408493;28;19929;-81
2022/10/17 06:27:53;;;;;;;;;;;16.20;99.90;;;;;;8396535;28;19939;-81
2022/10/17 06:31:54;;;;;;;;;;;16.20;99.90;;;;;;8392925;28;19938;-80
2022/10/17 06:35:56;;;;;;;;;;;16.30;99.90;;;;;;8376245;28;19928;-81
2022/10/17 06:39:58;;;;;;;;;;;16.30;99.90;;;;;;8400554;28;19931;-80
2022/10/17 06:43:59;;;;;;;;;;;16.30;99.90;;;;;;8378817;28;19973;-81
2022/10/17 06:48:01;;;;;;;;;;;16.30;99.90;;;;;;8401271;28;20031;-82
2022/10/17 06:52:03;;;;;;;;;;;16.30;99.90;;;;;;8395622;28;19934;-81
2022/10/17 06:56:06;;;;;;;;;;;16.40;99.90;;;;;;8377200;28;20091;-81
2022/10/17 07:00:08;;;;;;;;;;;16.40;99.90;;;;;;8398346;28;19938;-81
2022/10/17 07:04:09;;;;;;;;;;;16.40;99.90;;;;;;8395871;28;19929;-81
2022/10/17 07:08:11;;;;;;;;;;;16.40;99.90;;;;;;8400163;28;19925;-81
2022/10/17 07:12:13;;;;;;;;;;;16.50;99.90;;;;;;8392941;28;19939;-81
2022/10/17 07:16:15;;;;;;;;;;;16.50;99.90;;;;;;8394316;28;19928;-80
2022/10/17 07:20:16;;;;;;;;;;;16.50;99.90;;;;;;8403903;28;19960;-80
2022/10/17 07:24:18;;;;;;;;;;;16.50;99.90;;;;;;8394623;28;19928;-80
2022/10/17 07:28:19;;;;;;;;;;;16.50;99.90;;;;;;8395448;28;20345;-80
2022/10/17 07:32:21;;;;;;;;;;;16.50;99.90;;;;;;8380622;28;19979;-81
2022/10/17 07:36:23;;;;;;;;;;;16.60;99.90;;;;;;8375897;28;19932;-81
2022/10/17 07:40:24;;;;;;;;;;;16.60;99.90;;;;;;8396201;28;19978;-81
2022/10/17 07:44:26;;;;;;;;;;;16.60;99.90;;;;;;8394327;28;19946;-81
2022/10/17 07:48:28;;;;;;;;;;;16.60;99.90;;;;;;8393309;28;20321;-81
2022/10/17 07:52:30;;;;;;;;;;;16.60;99.90;;;;;;8395810;28;20299;-81
2022/10/17 07:56:32;;;;;;;;;;;16.70;99.90;;;;;;8395049;28;20015;-81
2022/10/17 08:00:35;;;;;;;;;;;16.60;99.90;;;;;;8396243;28;19935;-81
2022/10/17 08:04:37;;;;;;;;;;;16.60;99.90;;;;;;8386451;28;20196;-84
2022/10/17 08:08:39;;;;;;;;;;;16.60;99.90;;;;;;8393543;28;20430;-83
2022/10/17 08:12:41;;;;;;;;;;;16.60;99.90;;;;;;8379770;28;19925;-83
2022/10/17 08:16:43;;;;;;;;;;;16.60;99.90;;;;;;8374880;28;20026;-83
2022/10/17 08:20:44;;;;;;;;;;;16.70;99.90;;;;;;8387774;28;19925;-80
2022/10/17 08:24:46;;;;;;;;;;;16.70;99.90;;;;;;8391386;28;20371;-81
2022/10/17 08:28:48;;;;;;;;;;;16.70;99.90;;;;;;8394445;28;19931;-82
2022/10/17 08:32:50;;;;;;;;;;;16.70;99.90;;;;;;8396285;28;20314;-82
2022/10/17 08:36:52;;;;;;;;;;;16.80;99.90;;;;;;8375386;28;20003;-79
2022/10/17 08:40:56;;;;;;;;;;;16.80;99.90;;;;;;8377139;28;20027;-80
2022/10/17 08:45:09;;;;;;;;;;;16.80;99.90;;;;;;8392250;28;19924;-80
2022/10/17 08:49:14;;;;;;;;;;;16.80;99.90;;;;;;8394002;28;20019;-81
2022/10/17 08:53:18;;;;;;;;;;;16.80;99.90;;;;;;8392782;28;20019;-81
2022/10/17 08:57:20;;;;;;;;;;;16.80;99.90;;;;;;8407196;28;20028;-80
2022/10/17 09:01:25;;;;;;;;;;;16.80;99.90;;;;;;8391715;28;20411;-81
2022/10/17 09:05:34;;;;;;;;;;;16.80;99.90;;;;;;8391074;28;19960;-80
2022/10/17 09:09:38;;;;;;;;;;;16.80;99.90;;;;;;8390710;28;19924;-80
2022/10/17 09:13:43;;;;;;;;;;;16.90;99.90;;;;;;8391052;28;20353;-81
2022/10/17 09:17:48;;;;;;;;;;;16.90;99.90;;;;;;8389019;28;19925;-80
2022/10/17 09:22:04;;;;;;;;;;;16.90;99.90;;;;;;8393616;28;20043;-80
2022/10/17 09:26:09;;;;;;;;;;;16.90;99.90;;;;;;8393057;28;19935;-78
2022/10/17 09:30:29;;;;;;;;;;;17.00;99.90;;;;;;8392625;28;19943;-80
2022/10/17 09:34:45;;;;;;;;;;;16.90;99.90;;;;;;8386529;28;20558;-81
2022/10/17 09:39:01;;;;;;;;;;;16.90;99.90;;;;;;8368786;28;20007;-79
2022/10/17 09:43:05;;;;;;;;;;;16.90;99.90;;;;;;8389426;28;19924;-78
2022/10/17 09:47:14;;;;;;;;;;;16.90;99.90;;;;;;8391355;28;20294;-79
2022/10/17 09:51:15;;;;;;;;;;;16.90;99.90;;;;;;8375188;28;19931;-79
2022/10/17 09:55:32;;;;;;;;;;;17.00;99.90;;;;;;8390971;28;19928;-79
2022/10/17 09:59:44;;;;;;;;;;;17.00;99.90;;;;;;8401168;28;19972;-79
2022/10/17 10:03:46;;;;;;;;;;;17.10;99.90;;;;;;8400139;28;20031;-80
2022/10/17 10:08:00;;;;;;;;;;;17.10;99.90;;;;;;8379861;28;19950;-79
2022/10/17 10:12:06;;;;;;;;;;;17.10;99.90;;;;;;8400735;28;19928;-80
2022/10/17 10:16:13;;;;;;;;;;;17.10;99.90;;;;;;8396256;28;20441;-80
2022/10/17 10:20:25;;;;;;;;;;;17.10;99.90;;;;;;8391852;28;19932;-80
2022/10/17 10:24:28;;;;;;;;;;;17.10;99.90;;;;;;8396877;28;19933;-80
2022/10/17 10:28:34;;;;;;;;;;;17.10;99.90;;;;;;8401251;28;19928;-80
2022/10/17 10:32:36;;;;;;;;;;;17.10;99.90;;;;;;8399473;28;20360;-80
2022/10/17 10:36:44;;;;;;;;;;;17.20;99.90;;;;;;8379712;28;19951;-80
2022/10/17 10:40:47;;;;;;;;;;;17.10;99.90;;;;;;8382701;28;20065;-80
2022/10/17 10:44:49;;;;;;;;;;;17.20;99.90;;;;;;8397907;28;19924;-80
2022/10/17 10:48:57;;;;;;;;;;;17.20;99.90;;;;;;8397732;28;19924;-81
2022/10/17 10:53:13;;;;;;;;;;;17.20;99.90;;;;;;8379192;28;19959;-81
2022/10/17 10:57:19;;;;;;;;;;;17.20;99.90;;;;;;8414140;28;20365;-80
2022/10/17 11:01:24;;;;;;;;;;;17.20;99.90;;;;;;8377728;28;20291;-79
2022/10/17 11:05:44;;;;;;;;;;;17.20;99.90;;;;;;8398533;28;19928;-80
2022/10/17 11:10:06;;;;;;;;;;;17.20;99.90;;;;;;8381382;28;20431;-81
2022/10/17 11:14:08;;;;;;;;;;;17.20;99.90;;;;;;8398795;28;20497;-81
2022/10/17 11:18:28;;;;;;;;;;;17.20;99.90;;;;;;8393324;28;19931;-79
2022/10/17 11:22:31;;;;;;;;;;;17.20;99.90;;;;;;8375226;28;19951;-78
2022/10/17 11:26:37;;;;;;;;;;;17.20;99.90;;;;;;8377910;28;20347;-80
2022/10/17 11:30:44;;;;;;;;;;;17.20;99.90;;;;;;8396013;28;19924;-79
2022/10/17 11:34:53;;;;;;;;;;;17.20;99.90;;;;;;8410467;28;20043;-80
2022/10/17 11:39:04;;;;;;;;;;;17.20;99.90;;;;;;8396629;28;19939;-79
2022/10/17 11:43:11;;;;;;;;;;;17.20;99.90;;;;;;8394983;28;19928;-80
2022/10/17 11:47:28;;;;;;;;;;;17.20;99.90;;;;;;8390833;28;19924;-80
2022/10/17 11:51:35;;;;;;;;;;;17.30;99.90;;;;;;8377629;28;20462;-80
2022/10/17 11:55:57;;;;;;;;;;;17.30;99.90;;;;;;8375849;28;20441;-81
2022/10/17 12:00:05;;;;;;;;;;;17.30;99.90;;;;;;8372839;28;20356;-80
2022/10/17 12:04:25;;;;;;;;;;;17.40;99.90;;;;;;8372575;28;20406;-81
2022/10/17 12:08:28;;;;;;;;;;;17.40;99.90;;;;;;8367073;28;20404;-80
2022/10/17 12:12:33;;;;;;;;;;;17.50;99.90;;;;;;8367774;28;19947;-80
2022/10/17 12:16:36;;;;;;;;;;;17.50;99.90;;;;;;8376018;28;19939;-80
2022/10/17 12:20:38;;;;;;;;;;;17.50;99.90;;;;;;8369995;28;20391;-80
2022/10/17 12:24:44;;;;;;;;;;;17.60;99.90;;;;;;8370716;28;20031;-81
2022/10/17 12:28:46;;;;;;;;;;;17.60;99.90;;;;;;8370065;28;19971;-81
2022/10/17 12:33:07;;;;;;;;;;;17.60;99.90;;;;;;8364617;28;19929;-79
2022/10/17 12:37:10;;;;;;;;;;;17.60;99.90;;;;;;8372021;28;19975;-80
2022/10/17 12:41:12;;;;;;;;;;;17.60;99.90;;;;;;8372598;28;19928;-79
2022/10/17 12:45:43;;;;;;;;;;;17.60;99.90;;;;;;8381557;28;19968;-79
2022/10/17 12:49:47;;;;;;;;;;;17.60;99.90;;;;;;8364514;28;19935;-80
2022/10/17 12:54:11;;;;;;;;;;;17.50;99.90;;;;;;8360718;28;19929;-79
2022/10/17 12:58:15;;;;;;;;;;;17.50;99.90;;;;;;8364508;28;19964;-81
2022/10/17 13:02:19;;;;;;;;;;;17.50;99.90;;;;;;8373024;28;19975;-81
2022/10/17 13:06:22;;;;;;;;;;;17.50;99.90;;;;;;8370930;28;19925;-80
2022/10/17 13:10:25;;;;;;;;;;;17.50;99.90;;;;;;8361794;28;19929;-80
2022/10/17 13:14:27;;;;;;;;;;;17.50;99.90;;;;;;8361427;28;20075;-80
2022/10/17 13:18:29;;;;;;;;;;;17.60;99.90;;;;;;8350971;28;20347;-80
2022/10/17 13:22:31;;;;;;;;;;;17.60;99.90;;;;;;8350560;28;20307;-80
2022/10/17 13:26:33;;;;;;;;;;;17.70;99.90;;;;;;8370715;28;19990;-81
2022/10/17 13:30:35;;;;;;;;;;;17.70;99.90;;;;;;8346992;28;20545;-80
2022/10/17 13:34:37;;;;;;;;;;;17.80;99.90;;;;;;8372022;28;19940;-80
2022/10/17 13:38:39;;;;;;;;;;;17.80;99.90;;;;;;8373219;28;20390;-81
2022/10/17 13:42:43;;;;;;;;;;;17.80;99.90;;;;;;8374929;28;19924;-80
2022/10/17 13:46:45;;;;;;;;;;;17.80;99.90;;;;;;8374689;28;20272;-81
2022/10/17 13:50:49;;;;;;;;;;;17.80;99.90;;;;;;8370003;28;20023;-79
2022/10/17 13:54:52;;;;;;;;;;;17.80;99.90;;;;;;8361417;28;19931;-79
2022/10/17 13:58:56;;;;;;;;;;;17.90;99.90;;;;;;8371498;28;19930;-78
2022/10/17 14:02:57;;;;;;;;;;;17.90;99.90;;;;;;8374469;28;19928;-80
2022/10/17 14:07:00;;;;;;;;;;;17.80;99.90;;;;;;8354574;28;20383;-81
2022/10/17 14:11:11;;;;;;;;;;;17.80;99.90;;;;;;8372586;28;19928;-80
2022/10/17 14:15:14;;;;;;;;;;;17.80;99.90;;;;;;8371295;28;20375;-81
2022/10/17 14:19:26;;;;;;;;;;;17.80;99.90;;;;;;8373743;28;20388;-81
2022/10/17 14:23:28;;;;;;;;;;;17.80;99.90;;;;;;8373079;28;19964;-78
2022/10/17 14:27:33;;;;;;;;;;;17.90;99.90;;;;;;8372518;28;19936;-79
2022/10/17 14:31:35;;;;;;;;;;;17.90;99.90;;;;;;8357034;28;19924;-81
2022/10/17 14:35:38;;;;;;;;;;;17.90;99.90;;;;;;8372151;28;20308;-81
2022/10/17 14:39:47;;;;;;;;;;;18.10;99.90;;;;;;8370526;28;19925;-81
2022/10/17 14:43:53;;;;;;;;;;;18.20;99.90;;;;;;8350733;28;20027;-81
2022/10/17 14:47:59;;;;;;;;;;;18.30;99.90;;;;;;8371619;28;20349;-80
2022/10/17 14:52:16;;;;;;;;;;;18.30;99.90;;;;;;8369839;28;19928;-79
2022/10/17 14:56:21;;;;;;;;;;;18.40;99.90;;;;;;8370142;28;19931;-80
2022/10/17 15:00:23;;;;;;;;;;;18.30;99.90;;;;;;8370683;28;20003;-80
2022/10/17 15:04:25;;;;;;;;;;;18.30;99.90;;;;;;8361407;28;19924;-82
2022/10/17 15:08:26;;;;;;;;;;;18.30;99.90;;;;;;8378102;28;20368;-81
2022/10/17 15:12:28;;;;;;;;;;;18.20;99.90;;;;;;8372157;28;20297;-81
2022/10/17 15:16:32;;;;;;;;;;;18.20;99.90;;;;;;8370678;28;19932;-82
2022/10/17 15:20:33;;;;;;;;;;;18.20;99.90;;;;;;8371121;28;19935;-82
2022/10/17 15:24:35;;;;;;;;;;;18.20;99.90;;;;;;8368270;28;19928;-81
2022/10/17 15:28:36;;;;;;;;;;;18.20;99.90;;;;;;8365882;28;19928;-81
2022/10/17 15:32:38;;;;;;;;;;;18.20;99.90;;;;;;8351322;28;19931;-81
2022/10/17 15:36:41;;;;;;;;;;;18.20;99.90;;;;;;8374073;28;19928;-83
2022/10/17 15:40:42;;;;;;;;;;;18.20;99.90;;;;;;8378123;28;20614;-81
2022/10/17 15:44:48;;;;;;;;;;;18.20;99.90;;;;;;8369106;28;20291;-82
2022/10/17 15:48:50;;;;;;;;;;;18.20;99.90;;;;;;8370525;28;19925;-82
2022/10/17 15:52:51;;;;;;;;;;;18.10;99.90;;;;;;8372403;28;19933;-81
2022/10/17 15:56:53;;;;;;;;;;;18.10;99.90;;;;;;8384411;28;20269;-81
2022/10/17 16:00:55;;;;;;;;;;;18.00;99.90;;;;;;8368067;28;20613;-82
2022/10/17 16:04:57;;;;;;;;;;;17.90;99.90;;;;;;8384002;28;19932;-81
2022/10/17 16:08:59;;;;;;;;;;;17.80;99.90;;;;;;8375321;28;19928;-81
2022/10/17 16:18:04;;;;;;;;;;;17.80;99.90;;;;;;8367152;28;20108;-82
2022/10/17 16:22:15;;;;;;;;;;;17.60;99.90;;;;;;8366794;28;20391;-82
2022/10/17 16:26:17;;;;;;;;;;;17.60;99.90;;;;;;8369685;28;19932;-81
2022/10/17 16:30:19;;;;;;;;;;;17.50;99.90;;;;;;8370243;28;19928;-82
2022/10/17 16:34:25;;;;;;;;;;;17.50;99.90;;;;;;8358173;28;19929;-82
2022/10/17 16:38:27;;;;;;;;;;;17.50;99.90;;;;;;8366209;28;19940;-82
2022/10/17 16:42:32;;;;;;;;;;;17.40;99.90;;;;;;8383488;28;19951;-82
2022/10/17 16:46:35;;;;;;;;;;;17.30;99.90;;;;;;8372507;28;19929;-82
2022/10/17 16:50:39;;;;;;;;;;;17.30;99.90;;;;;;8364200;28;20028;-82
2022/10/17 16:54:41;;;;;;;;;;;17.30;99.90;;;;;;8368063;28;19931;-81
2022/10/17 16:58:42;;;;;;;;;;;17.30;99.90;;;;;;8375423;28;20008;-82
2022/10/17 17:02:46;;;;;;;;;;;17.30;99.90;;;;;;8373567;28;19934;-82
2022/10/17 17:06:48;;;;;;;;;;;17.20;99.90;;;;;;8352606;28;21505;-82
2022/10/17 17:10:49;;;;;;;;;;;17.20;99.90;;;;;;8376082;28;19935;-81
2022/10/17 17:14:51;;;;;;;;;;;17.10;99.90;;;;;;8373779;28;19936;-82
2022/10/17 17:19:13;;;;;;;;;;;17.10;99.90;;;;;;8378379;28;19929;-82
2022/10/17 17:23:15;;;;;;;;;;;17.00;99.90;;;;;;8373411;28;19939;-81
2022/10/17 17:27:17;;;;;;;;;;;17.00;99.90;;;;;;8371153;28;19929;-82
2022/10/17 17:31:21;;;;;;;;;;;17.00;99.90;;;;;;8393761;28;20353;-82
2022/10/17 17:35:22;;;;;;;;;;;17.00;99.90;;;;;;8371456;28;20364;-82
2022/10/17 17:39:24;;;;;;;;;;;17.00;99.90;;;;;;8372468;28;19931;-82
2022/10/17 17:43:26;;;;;;;;;;;17.00;99.90;;;;;;8361564;28;19932;-82
2022/10/17 17:47:27;;;;;;;;;;;16.90;99.90;;;;;;8360960;28;19928;-82
2022/10/17 17:51:29;;;;;;;;;;;16.90;99.90;;;;;;8373546;28;20273;-81
2022/10/17 17:55:31;;;;;;;;;;;16.80;99.90;;;;;;8373470;28;19929;-81
2022/10/17 17:59:33;;;;;;;;;;;16.80;99.90;;;;;;8354329;28;20392;-82
2022/10/17 18:03:37;;;;;;;;;;;16.70;99.90;;;;;;8351947;28;19929;-81
2022/10/17 18:07:38;;;;;;;;;;;16.80;99.90;;;;;;8358766;28;20388;-82
2022/10/17 18:11:40;;;;;;;;;;;16.80;99.90;;;;;;8368307;28;19934;-81
2022/10/17 18:15:43;;;;;;;;;;;16.80;99.90;;;;;;8370264;28;19936;-81
2022/10/17 18:19:45;;;;;;;;;;;16.90;99.90;;;;;;8370707;28;19928;-82
2022/10/17 18:23:47;;;;;;;;;;;16.90;99.90;;;;;;8372081;28;19936;-82
2022/10/17 18:27:48;;;;;;;;;;;16.90;99.90;;;;;;8375340;28;19932;-81
2022/10/17 18:31:50;;;;;;;;;;;16.90;99.90;;;;;;8372662;28;19925;-81
2022/10/17 18:35:52;;;;;;;;;;;16.80;99.90;;;;;;8388813;28;20010;-81
2022/10/17 18:39:57;;;;;;;;;;;16.80;99.90;;;;;;8346029;28;19940;-81
2022/10/17 18:43:59;;;;;;;;;;;16.80;99.90;;;;;;8364207;28;19931;-81
2022/10/17 18:48:00;;;;;;;;;;;16.80;99.90;;;;;;8369356;28;19983;-80
2022/10/17 18:52:02;;;;;;;;;;;16.80;99.90;;;;;;8368745;28;20218;-81
2022/10/17 18:56:04;;;;;;;;;;;16.80;99.90;;;;;;8363658;28;19934;-81
2022/10/17 19:00:06;;;;;;;;;;;16.80;99.90;;;;;;8358843;28;20803;-81
2022/10/17 19:04:08;;;;;;;;;;;16.90;99.90;;;;;;8364084;28;19928;-81
2022/10/17 19:08:11;;;;;;;;;;;16.90;99.90;;;;;;8366650;28;19933;-81
2022/10/17 19:12:13;;;;;;;;;;;16.80;99.90;;;;;;8362057;28;19925;-81
2022/10/17 19:16:25;;;;;;;;;;;16.80;99.90;;;;;;8363366;28;20299;-81
2022/10/17 19:20:27;;;;;;;;;;;16.80;99.90;;;;;;8367290;28;19990;-81
2022/10/17 19:24:28;;;;;;;;;;;16.80;99.90;;;;;;8369673;28;19932;-81
2022/10/17 19:28:31;;;;;;;;;;;16.80;99.90;;;;;;8369315;28;20316;-81
2022/10/17 19:32:32;;;;;;;;;;;16.70;99.90;;;;;;8385436;28;19925;-81
2022/10/17 19:36:34;;;;;;;;;;;16.70;99.90;;;;;;8367744;28;19939;-81
2022/10/17 19:40:39;;;;;;;;;;;16.70;99.90;;;;;;8364489;28;20426;-81
2022/10/17 19:44:41;;;;;;;;;;;16.70;99.90;;;;;;8375129;28;19924;-81
2022/10/17 19:48:43;;;;;;;;;;;16.70;99.90;;;;;;8374332;28;19925;-81
2022/10/17 19:52:44;;;;;;;;;;;16.70;99.90;;;;;;8374325;28;19969;-80
2022/10/17 19:56:47;;;;;;;;;;;16.60;99.90;;;;;;8366882;28;19937;-81
2022/10/17 20:00:50;;;;;;;;;;;16.60;99.90;;;;;;8366475;28;20027;-81
2022/10/17 20:04:51;;;;;;;;;;;16.70;99.90;;;;;;8350577;28;19935;-80
2022/10/17 20:09:07;;;;;;;;;;;16.60;99.90;;;;;;8365973;28;20411;-81
2022/10/17 20:13:11;;;;;;;;;;;16.70;99.90;;;;;;8367165;28;19929;-81
2022/10/17 20:17:13;;;;;;;;;;;16.70;99.90;;;;;;8367017;28;19985;-81
2022/10/17 20:21:17;;;;;;;;;;;16.70;99.90;;;;;;8348817;28;20310;-81
2022/10/17 20:25:19;;;;;;;;;;;16.70;99.90;;;;;;8362046;28;19939;-81
2022/10/17 20:29:22;;;;;;;;;;;16.70;99.90;;;;;;8365673;28;19932;-82
2022/10/17 20:33:25;;;;;;;;;;;16.70;99.90;;;;;;8377328;28;20040;-81
2022/10/17 20:37:32;;;;;;;;;;;16.70;99.90;;;;;;8351612;28;20340;-81
2022/10/17 20:41:36;;;;;;;;;;;16.70;99.90;;;;;;8353536;28;20507;-81
2022/10/17 20:45:40;;;;;;;;;;;16.70;99.90;;;;;;8348655;28;20455;-81
2022/10/17 20:49:51;;;;;;;;;;;16.70;99.90;;;;;;8355927;28;19944;-81
2022/10/17 20:53:53;;;;;;;;;;;16.70;99.90;;;;;;8341301;28;19952;-81
2022/10/17 20:57:54;;;;;;;;;;;16.70;99.90;;;;;;8356664;28;20079;-81
2022/10/17 21:01:56;;;;;;;;;;;16.70;99.90;;;;;;8360886;28;20046;-81
2022/10/17 21:05:58;;;;;;;;;;;16.70;99.90;;;;;;8347176;28;20388;-80
2022/10/17 21:09:59;;;;;;;;;;;16.70;99.90;;;;;;8364951;28;19925;-80
2022/10/17 21:14:18;;;;;;;;;;;16.70;99.90;;;;;;8361319;28;19932;-80
2022/10/17 21:18:20;;;;;;;;;;;16.70;99.90;;;;;;8371644;28;20302;-81
2022/10/17 21:22:21;;;;;;;;;;;16.70;99.90;;;;;;8359331;28;19935;-81
2022/10/17 21:26:23;;;;;;;;;;;16.70;99.90;;;;;;8394576;28;19924;-81
2022/10/17 21:30:25;;;;;;;;;;;16.60;99.90;;;;;;8373045;28;20386;-81
2022/10/17 21:34:27;;;;;;;;;;;16.60;99.90;;;;;;8359103;28;19924;-81
2022/10/17 21:38:29;;;;;;;;;;;16.50;99.90;;;;;;8368171;28;19937;-80
2022/10/17 21:42:31;;;;;;;;;;;16.40;99.90;;;;;;8347135;28;19976;-80
2022/10/17 21:46:33;;;;;;;;;;;16.40;99.90;;;;;;8363047;28;19954;-80
2022/10/17 21:50:34;;;;;;;;;;;16.30;99.90;;;;;;8358061;28;19925;-81
2022/10/17 21:54:36;;;;;;;;;;;16.30;99.90;;;;;;8378843;28;19925;-80
2022/10/17 21:58:37;;;;;;;;;;;16.20;99.90;;;;;;8370074;28;20315;-81
2022/10/17 22:02:39;;;;;;;;;;;16.20;99.90;;;;;;8383294;28;19932;-81
2022/10/17 22:06:42;;;;;;;;;;;16.10;99.90;;;;;;8369048;28;19931;-80
2022/10/17 22:10:43;;;;;;;;;;;16.10;99.90;;;;;;8395267;28;19932;-81
2022/10/17 22:14:45;;;;;;;;;;;16.00;99.90;;;;;;8371950;28;19924;-81
2022/10/17 22:18:46;;;;;;;;;;;16.00;99.90;;;;;;8362098;28;19935;-81
2022/10/17 22:22:48;;;;;;;;;;;16.00;99.90;;;;;;8364026;28;20299;-80
2022/10/17 22:26:50;;;;;;;;;;;16.00;99.90;;;;;;8382842;28;20059;-81
2022/10/17 22:30:51;;;;;;;;;;;16.00;99.90;;;;;;8371802;28;20027;-81
2022/10/17 22:34:53;;;;;;;;;;;15.90;99.90;;;;;;8357077;28;20269;-81
2022/10/17 22:38:55;;;;;;;;;;;15.90;99.90;;;;;;8391347;28;20379;-81
2022/10/17 22:42:56;;;;;;;;;;;15.80;99.90;;;;;;8390021;28;19928;-80
2022/10/17 22:46:58;;;;;;;;;;;15.90;99.90;;;;;;8387907;28;19933;-80
2022/10/17 22:51:00;;;;;;;;;;;15.80;99.90;;;;;;8365657;28;19932;-81
2022/10/17 22:55:03;;;;;;;;;;;15.80;99.90;;;;;;8348079;28;19969;-80
2022/10/17 22:59:05;;;;;;;;;;;15.80;99.90;;;;;;8369272;28;20038;-80
2022/10/17 23:03:06;;;;;;;;;;;15.70;99.90;;;;;;8366789;28;20253;-81
2022/10/17 23:07:12;;;;;;;;;;;15.70;99.90;;;;;;8365633;28;19929;-80
2022/10/17 23:11:15;;;;;;;;;;;15.70;99.90;;;;;;8366289;28;20404;-80
2022/10/17 23:15:16;;;;;;;;;;;15.60;99.90;;;;;;8369152;28;20383;-81
2022/10/17 23:19:18;;;;;;;;;;;15.60;99.90;;;;;;8362582;28;20028;-81
2022/10/17 23:23:20;;;;;;;;;;;15.50;99.90;;;;;;8377107;28;19938;-81
2022/10/17 23:27:21;;;;;;;;;;;15.50;99.90;;;;;;8369363;28;20390;-81
2022/10/17 23:31:23;;;;;;;;;;;15.50;99.90;;;;;;8385352;28;19924;-81
2022/10/17 23:35:25;;;;;;;;;;;15.50;99.90;;;;;;8384208;28;20027;-81
2022/10/17 23:39:26;;;;;;;;;;;15.50;99.90;;;;;;8378199;28;19932;-80
2022/10/17 23:43:30;;;;;;;;;;;15.40;99.90;;;;;;8359594;28;19930;-81
2022/10/17 23:47:32;;;;;;;;;;;15.40;99.90;;;;;;8361607;28;19928;-81
2022/10/17 23:51:33;;;;;;;;;;;15.40;99.90;;;;;;8361528;28;19986;-81
2022/10/17 23:55:35;;;;;;;;;;;15.40;99.90;;;;;;8345558;28;19932;-81
2022/10/17 23:59:37;;;;;;;;;;;15.40;99.90;;;;;;8365061;28;19935;-81
